sensor_id;sensor_type;location;lat;lon;timestamp;P1;durP1;ratioP1;P2;durP2;ratioP2
75548;SDS011;64133;56.002;37.208;2022-11-12T00:03:07;3.90;;;2.08;;
75548;SDS011;64133;56.002;37.208;2022-11-12T00:08:12;6.40;;;3.30;;
75548;SDS011;64133;56.002;37.208;2022-11-12T00:13:17;6.83;;;2.95;;
75548;SDS011;64133;56.002;37.208;2022-11-12T00:18:22;6.53;;;2.85;;
75548;SDS011;64133;56.002;37.208;2022-11-12T00:23:27;4.95;;;3.25;;
75548;SDS011;64133;56.002;37.208;2022-11-12T00:28:32;4.47;;;2.98;;
75548;SDS011;64133;56.002;37.208;2022-11-12T00:33:39;5.28;;;3.10;;
75548;SDS011;64133;56.002;37.208;2022-11-12T00:38:44;6.22;;;3.15;;
75548;SDS011;64133;56.002;37.208;2022-11-12T00:43:49;6.67;;;2.77;;
75548;SDS011;64133;56.002;37.208;2022-11-12T00:48:54;7.08;;;2.90;;
75548;SDS011;64133;56.002;37.208;2022-11-12T00:53:58;4.87;;;2.50;;
75548;SDS011;64133;56.002;37.208;2022-11-12T00:59:03;5.25;;;3.12;;
75548;SDS011;64133;56.002;37.208;2022-11-12T01:04:08;5.85;;;2.70;;
75548;SDS011;64133;56.002;37.208;2022-11-12T01:09:14;3.83;;;2.47;;
75548;SDS011;64133;56.002;37.208;2022-11-12T01:14:20;4.40;;;2.25;;
75548;SDS011;64133;56.002;37.208;2022-11-12T01:19:25;5.60;;;2.22;;
75548;SDS011;64133;56.002;37.208;2022-11-12T01:24:30;4.83;;;2.33;;
75548;SDS011;64133;56.002;37.208;2022-11-12T01:29:35;5.58;;;3.20;;
75548;SDS011;64133;56.002;37.208;2022-11-12T01:34:40;5.03;;;2.85;;
75548;SDS011;64133;56.002;37.208;2022-11-12T01:39:45;4.60;;;2.40;;
75548;SDS011;64133;56.002;37.208;2022-11-12T01:44:51;4.05;;;2.30;;
75548;SDS011;64133;56.002;37.208;2022-11-12T01:49:56;4.60;;;2.50;;
75548;SDS011;64133;56.002;37.208;2022-11-12T01:55:02;4.12;;;2.20;;
75548;SDS011;64133;56.002;37.208;2022-11-12T02:00:07;5.30;;;2.30;;
75548;SDS011;64133;56.002;37.208;2022-11-12T02:05:13;4.72;;;2.20;;
75548;SDS011;64133;56.002;37.208;2022-11-12T02:10:18;4.00;;;2.10;;
75548;SDS011;64133;56.002;37.208;2022-11-12T02:15:23;3.45;;;2.00;;
75548;SDS011;64133;56.002;37.208;2022-11-12T02:20:31;4.83;;;1.70;;
75548;SDS011;64133;56.002;37.208;2022-11-12T02:25:36;4.00;;;2.47;;
75548;SDS011;64133;56.002;37.208;2022-11-12T02:30:42;3.58;;;1.85;;
75548;SDS011;64133;56.002;37.208;2022-11-12T02:35:45;3.58;;;2.52;;
75548;SDS011;64133;56.002;37.208;2022-11-12T02:40:50;4.33;;;2.27;;
75548;SDS011;64133;56.002;37.208;2022-11-12T02:45:55;4.37;;;2.15;;
75548;SDS011;64133;56.002;37.208;2022-11-12T02:51:00;4.10;;;2.47;;
75548;SDS011;64133;56.002;37.208;2022-11-12T02:56:06;3.58;;;2.12;;
75548;SDS011;64133;56.002;37.208;2022-11-12T03:01:11;4.10;;;1.85;;
75548;SDS011;64133;56.002;37.208;2022-11-12T03:06:15;7.60;;;2.33;;
75548;SDS011;64133;56.002;37.208;2022-11-12T03:11:20;3.98;;;2.20;;
75548;SDS011;64133;56.002;37.208;2022-11-12T03:16:25;3.85;;;2.40;;
75548;SDS011;64133;56.002;37.208;2022-11-12T03:21:30;3.33;;;1.87;;
75548;SDS011;64133;56.002;37.208;2022-11-12T03:26:35;3.65;;;1.40;;
75548;SDS011;64133;56.002;37.208;2022-11-12T03:31:40;3.67;;;2.10;;
75548;SDS011;64133;56.002;37.208;2022-11-12T03:36:45;5.53;;;2.60;;
75548;SDS011;64133;56.002;37.208;2022-11-12T03:41:50;4.55;;;2.47;;
75548;SDS011;64133;56.002;37.208;2022-11-12T03:46:55;5.28;;;2.20;;
75548;SDS011;64133;56.002;37.208;2022-11-12T03:52:11;5.03;;;2.40;;
75548;SDS011;64133;56.002;37.208;2022-11-12T03:57:23;4.00;;;1.98;;
75548;SDS011;64133;56.002;37.208;2022-11-12T04:02:27;5.83;;;2.08;;
75548;SDS011;64133;56.002;37.208;2022-11-12T04:07:32;3.83;;;2.02;;
75548;SDS011;64133;56.002;37.208;2022-11-12T04:12:55;3.47;;;1.62;;
75548;SDS011;64133;56.002;37.208;2022-11-12T04:18:17;4.20;;;2.10;;
75548;SDS011;64133;56.002;37.208;2022-11-12T04:23:40;2.90;;;1.50;;
75548;SDS011;64133;56.002;37.208;2022-11-12T04:28:45;3.52;;;2.00;;
75548;SDS011;64133;56.002;37.208;2022-11-12T04:34:09;3.58;;;1.52;;
75548;SDS011;64133;56.002;37.208;2022-11-12T04:39:32;2.58;;;1.35;;
75548;SDS011;64133;56.002;37.208;2022-11-12T04:44:37;4.55;;;1.57;;
75548;SDS011;64133;56.002;37.208;2022-11-12T04:50:00;3.58;;;1.42;;
75548;SDS011;64133;56.002;37.208;2022-11-12T04:55:05;2.80;;;1.67;;
75548;SDS011;64133;56.002;37.208;2022-11-12T05:00:12;2.70;;;1.47;;
75548;SDS011;64133;56.002;37.208;2022-11-12T05:05:17;3.80;;;1.52;;
75548;SDS011;64133;56.002;37.208;2022-11-12T05:10:22;3.42;;;1.87;;
75548;SDS011;64133;56.002;37.208;2022-11-12T05:15:27;3.67;;;2.12;;
75548;SDS011;64133;56.002;37.208;2022-11-12T05:20:33;4.00;;;1.90;;
75548;SDS011;64133;56.002;37.208;2022-11-12T05:25:38;3.75;;;1.47;;
75548;SDS011;64133;56.002;37.208;2022-11-12T05:30:43;2.58;;;1.47;;
75548;SDS011;64133;56.002;37.208;2022-11-12T05:35:51;2.15;;;1.17;;
75548;SDS011;64133;56.002;37.208;2022-11-12T05:40:56;2.50;;;1.50;;
75548;SDS011;64133;56.002;37.208;2022-11-12T05:46:01;4.72;;;1.80;;
75548;SDS011;64133;56.002;37.208;2022-11-12T05:51:06;3.55;;;1.60;;
75548;SDS011;64133;56.002;37.208;2022-11-12T05:56:11;2.95;;;1.40;;
75548;SDS011;64133;56.002;37.208;2022-11-12T06:01:16;3.25;;;1.30;;
75548;SDS011;64133;56.002;37.208;2022-11-12T06:06:21;2.75;;;1.40;;
75548;SDS011;64133;56.002;37.208;2022-11-12T06:11:28;2.45;;;1.10;;
75548;SDS011;64133;56.002;37.208;2022-11-12T06:16:33;2.90;;;1.47;;
75548;SDS011;64133;56.002;37.208;2022-11-12T06:21:38;3.92;;;1.37;;
75548;SDS011;64133;56.002;37.208;2022-11-12T06:26:43;3.37;;;1.15;;
75548;SDS011;64133;56.002;37.208;2022-11-12T06:31:48;3.17;;;1.30;;
75548;SDS011;64133;56.002;37.208;2022-11-12T06:36:56;2.15;;;1.30;;
75548;SDS011;64133;56.002;37.208;2022-11-12T06:42:01;2.22;;;0.95;;
75548;SDS011;64133;56.002;37.208;2022-11-12T06:47:06;2.15;;;0.90;;
75548;SDS011;64133;56.002;37.208;2022-11-12T06:52:11;2.20;;;0.88;;
75548;SDS011;64133;56.002;37.208;2022-11-12T06:57:16;2.55;;;1.00;;
75548;SDS011;64133;56.002;37.208;2022-11-12T07:02:21;1.45;;;0.60;;
75548;SDS011;64133;56.002;37.208;2022-11-12T07:07:29;2.62;;;1.00;;
75548;SDS011;64133;56.002;37.208;2022-11-12T07:12:34;1.65;;;0.72;;
75548;SDS011;64133;56.002;37.208;2022-11-12T07:17:39;2.62;;;0.68;;
75548;SDS011;64133;56.002;37.208;2022-11-12T07:22:47;1.82;;;0.65;;
75548;SDS011;64133;56.002;37.208;2022-11-12T07:27:52;2.52;;;0.68;;
75548;SDS011;64133;56.002;37.208;2022-11-12T07:32:57;2.47;;;0.70;;
75548;SDS011;64133;56.002;37.208;2022-11-12T07:38:02;2.80;;;1.27;;
75548;SDS011;64133;56.002;37.208;2022-11-12T07:43:07;1.30;;;0.53;;
75548;SDS011;64133;56.002;37.208;2022-11-12T07:48:12;1.80;;;0.53;;
75548;SDS011;64133;56.002;37.208;2022-11-12T07:53:17;3.17;;;0.72;;
75548;SDS011;64133;56.002;37.208;2022-11-12T07:58:22;1.40;;;0.70;;
75548;SDS011;64133;56.002;37.208;2022-11-12T08:03:27;2.40;;;0.88;;
75548;SDS011;64133;56.002;37.208;2022-11-12T08:08:32;0.95;;;0.35;;
75548;SDS011;64133;56.002;37.208;2022-11-12T08:13:37;1.67;;;0.80;;
75548;SDS011;64133;56.002;37.208;2022-11-12T08:18:42;2.20;;;0.62;;
75548;SDS011;64133;56.002;37.208;2022-11-12T08:23:50;1.57;;;0.45;;
75548;SDS011;64133;56.002;37.208;2022-11-12T08:28:54;3.22;;;0.70;;
75548;SDS011;64133;56.002;37.208;2022-11-12T08:33:59;1.20;;;0.50;;
75548;SDS011;64133;56.002;37.208;2022-11-12T08:39:08;1.77;;;0.60;;
75548;SDS011;64133;56.002;37.208;2022-11-12T08:44:13;3.05;;;0.40;;
75548;SDS011;64133;56.002;37.208;2022-11-12T08:49:18;1.67;;;0.70;;
75548;SDS011;64133;56.002;37.208;2022-11-12T08:54:23;1.32;;;0.55;;
75548;SDS011;64133;56.002;37.208;2022-11-12T08:59:30;1.47;;;0.50;;
75548;SDS011;64133;56.002;37.208;2022-11-12T09:04:35;1.40;;;0.50;;
75548;SDS011;64133;56.002;37.208;2022-11-12T09:09:40;1.75;;;0.60;;
75548;SDS011;64133;56.002;37.208;2022-11-12T09:14:45;5.03;;;0.70;;
75548;SDS011;64133;56.002;37.208;2022-11-12T09:19:52;5.08;;;0.90;;
75548;SDS011;64133;56.002;37.208;2022-11-12T09:24:56;5.42;;;0.75;;
75548;SDS011;64133;56.002;37.208;2022-11-12T09:30:01;1.67;;;0.70;;
75548;SDS011;64133;56.002;37.208;2022-11-12T09:35:07;2.02;;;0.50;;
75548;SDS011;64133;56.002;37.208;2022-11-12T09:40:18;1.15;;;0.40;;
75548;SDS011;64133;56.002;37.208;2022-11-12T09:45:33;1.90;;;0.45;;
75548;SDS011;64133;56.002;37.208;2022-11-12T09:50:37;1.02;;;0.33;;
75548;SDS011;64133;56.002;37.208;2022-11-12T09:55:42;1.95;;;0.78;;
75548;SDS011;64133;56.002;37.208;2022-11-12T10:00:50;1.00;;;0.60;;
75548;SDS011;64133;56.002;37.208;2022-11-12T10:05:54;1.85;;;0.70;;
75548;SDS011;64133;56.002;37.208;2022-11-12T10:11:01;1.45;;;0.50;;
75548;SDS011;64133;56.002;37.208;2022-11-12T10:16:08;1.17;;;0.40;;
75548;SDS011;64133;56.002;37.208;2022-11-12T10:21:34;1.50;;;0.40;;
75548;SDS011;64133;56.002;37.208;2022-11-12T10:26:39;1.22;;;0.40;;
75548;SDS011;64133;56.002;37.208;2022-11-12T10:31:43;3.62;;;0.40;;
75548;SDS011;64133;56.002;37.208;2022-11-12T10:36:49;1.87;;;0.55;;
75548;SDS011;64133;56.002;37.208;2022-11-12T10:42:01;1.05;;;0.28;;
75548;SDS011;64133;56.002;37.208;2022-11-12T10:47:20;1.72;;;0.62;;
75548;SDS011;64133;56.002;37.208;2022-11-12T10:52:30;2.00;;;0.50;;
75548;SDS011;64133;56.002;37.208;2022-11-12T10:57:37;0.72;;;0.30;;
75548;SDS011;64133;56.002;37.208;2022-11-12T11:02:45;0.88;;;0.35;;
75548;SDS011;64133;56.002;37.208;2022-11-12T11:07:51;1.40;;;0.50;;
75548;SDS011;64133;56.002;37.208;2022-11-12T11:13:08;2.08;;;0.50;;
75548;SDS011;64133;56.002;37.208;2022-11-12T11:18:18;1.35;;;0.80;;
75548;SDS011;64133;56.002;37.208;2022-11-12T11:23:24;1.20;;;0.50;;
75548;SDS011;64133;56.002;37.208;2022-11-12T11:28:31;3.20;;;0.37;;
75548;SDS011;64133;56.002;37.208;2022-11-12T11:33:38;1.40;;;0.40;;
75548;SDS011;64133;56.002;37.208;2022-11-12T11:38:55;1.50;;;0.50;;
75548;SDS011;64133;56.002;37.208;2022-11-12T11:44:05;1.57;;;0.40;;
75548;SDS011;64133;56.002;37.208;2022-11-12T11:49:18;1.20;;;0.50;;
75548;SDS011;64133;56.002;37.208;2022-11-12T11:54:33;1.75;;;0.98;;
75548;SDS011;64133;56.002;37.208;2022-11-12T11:59:48;1.35;;;0.40;;
75548;SDS011;64133;56.002;37.208;2022-11-12T12:04:55;3.37;;;0.60;;
75548;SDS011;64133;56.002;37.208;2022-11-12T12:10:02;3.72;;;1.20;;
75548;SDS011;64133;56.002;37.208;2022-11-12T12:15:14;5.17;;;2.05;;
75548;SDS011;64133;56.002;37.208;2022-11-12T12:20:22;2.22;;;0.60;;
75548;SDS011;64133;56.002;37.208;2022-11-12T12:25:27;1.82;;;0.57;;
75548;SDS011;64133;56.002;37.208;2022-11-12T12:30:33;2.27;;;0.50;;
75548;SDS011;64133;56.002;37.208;2022-11-12T12:35:43;1.10;;;0.33;;
75548;SDS011;64133;56.002;37.208;2022-11-12T12:40:47;3.40;;;0.70;;
75548;SDS011;64133;56.002;37.208;2022-11-12T12:45:51;0.85;;;0.20;;
75548;SDS011;64133;56.002;37.208;2022-11-12T12:51:05;3.02;;;0.95;;
75548;SDS011;64133;56.002;37.208;2022-11-12T13:01:56;1.50;;;0.50;;
75548;SDS011;64133;56.002;37.208;2022-11-12T13:07:00;3.05;;;0.50;;
75548;SDS011;64133;56.002;37.208;2022-11-12T13:12:07;2.15;;;0.50;;
75548;SDS011;64133;56.002;37.208;2022-11-12T13:17:42;1.90;;;0.60;;
75548;SDS011;64133;56.002;37.208;2022-11-12T13:22:50;1.32;;;0.70;;
75548;SDS011;64133;56.002;37.208;2022-11-12T13:28:05;1.70;;;0.50;;
75548;SDS011;64133;56.002;37.208;2022-11-12T13:38:20;1.00;;;0.40;;
75548;SDS011;64133;56.002;37.208;2022-11-12T13:43:29;0.80;;;0.30;;
75548;SDS011;64133;56.002;37.208;2022-11-12T13:48:37;1.27;;;0.30;;
75548;SDS011;64133;56.002;37.208;2022-11-12T13:53:41;1.42;;;0.30;;
75548;SDS011;64133;56.002;37.208;2022-11-12T13:58:46;3.00;;;1.52;;
75548;SDS011;64133;56.002;37.208;2022-11-12T14:03:51;1.40;;;0.53;;
75548;SDS011;64133;56.002;37.208;2022-11-12T14:09:03;1.65;;;0.60;;
75548;SDS011;64133;56.002;37.208;2022-11-12T14:14:15;1.10;;;0.40;;
75548;SDS011;64133;56.002;37.208;2022-11-12T14:24:29;1.55;;;0.40;;
75548;SDS011;64133;56.002;37.208;2022-11-12T14:29:35;2.17;;;0.30;;
75548;SDS011;64133;56.002;37.208;2022-11-12T14:34:40;1.20;;;0.40;;
75548;SDS011;64133;56.002;37.208;2022-11-12T14:39:46;0.72;;;0.20;;
75548;SDS011;64133;56.002;37.208;2022-11-12T14:44:51;1.07;;;0.28;;
75548;SDS011;64133;56.002;37.208;2022-11-12T14:49:56;1.00;;;0.40;;
75548;SDS011;64133;56.002;37.208;2022-11-12T14:55:03;0.62;;;0.15;;
75548;SDS011;64133;56.002;37.208;2022-11-12T15:00:17;0.68;;;0.20;;
75548;SDS011;64133;56.002;37.208;2022-11-12T15:05:23;1.50;;;0.30;;
75548;SDS011;64133;56.002;37.208;2022-11-12T15:10:34;1.55;;;0.50;;
75548;SDS011;64133;56.002;37.208;2022-11-12T15:15:38;1.22;;;0.20;;
75548;SDS011;64133;56.002;37.208;2022-11-12T15:20:42;1.20;;;0.47;;
75548;SDS011;64133;56.002;37.208;2022-11-12T15:25:57;1.05;;;0.20;;
75548;SDS011;64133;56.002;37.208;2022-11-12T15:31:05;0.82;;;0.42;;
75548;SDS011;64133;56.002;37.208;2022-11-12T15:36:13;0.78;;;0.23;;
75548;SDS011;64133;56.002;37.208;2022-11-12T15:41:21;0.78;;;0.30;;
75548;SDS011;64133;56.002;37.208;2022-11-12T15:51:29;0.70;;;0.30;;
75548;SDS011;64133;56.002;37.208;2022-11-12T15:56:34;1.55;;;0.33;;
75548;SDS011;64133;56.002;37.208;2022-11-12T16:01:39;1.12;;;0.30;;
75548;SDS011;64133;56.002;37.208;2022-11-12T16:06:44;1.00;;;0.20;;
75548;SDS011;64133;56.002;37.208;2022-11-12T16:11:49;0.57;;;0.13;;
75548;SDS011;64133;56.002;37.208;2022-11-12T16:16:54;0.60;;;0.20;;
75548;SDS011;64133;56.002;37.208;2022-11-12T16:21:59;2.08;;;0.53;;
75548;SDS011;64133;56.002;37.208;2022-11-12T16:27:05;2.02;;;0.70;;
75548;SDS011;64133;56.002;37.208;2022-11-12T16:32:11;0.78;;;0.23;;
75548;SDS011;64133;56.002;37.208;2022-11-12T16:37:16;0.95;;;0.30;;
75548;SDS011;64133;56.002;37.208;2022-11-12T16:42:21;2.15;;;0.30;;
75548;SDS011;64133;56.002;37.208;2022-11-12T16:47:26;1.52;;;0.40;;
75548;SDS011;64133;56.002;37.208;2022-11-12T16:52:31;2.47;;;0.55;;
75548;SDS011;64133;56.002;37.208;2022-11-12T16:57:36;1.10;;;0.40;;
75548;SDS011;64133;56.002;37.208;2022-11-12T17:02:42;1.37;;;0.40;;
75548;SDS011;64133;56.002;37.208;2022-11-12T17:07:47;1.35;;;0.50;;
75548;SDS011;64133;56.002;37.208;2022-11-12T17:12:52;1.37;;;0.20;;
75548;SDS011;64133;56.002;37.208;2022-11-12T17:17:57;1.15;;;0.33;;
75548;SDS011;64133;56.002;37.208;2022-11-12T17:23:02;1.12;;;0.25;;
75548;SDS011;64133;56.002;37.208;2022-11-12T17:28:07;2.50;;;0.37;;
75548;SDS011;64133;56.002;37.208;2022-11-12T17:33:11;1.30;;;0.40;;
75548;SDS011;64133;56.002;37.208;2022-11-12T17:38:17;1.98;;;0.30;;
75548;SDS011;64133;56.002;37.208;2022-11-12T17:43:22;1.00;;;0.40;;
75548;SDS011;64133;56.002;37.208;2022-11-12T17:48:28;1.25;;;0.20;;
75548;SDS011;64133;56.002;37.208;2022-11-12T17:53:35;1.27;;;0.40;;
75548;SDS011;64133;56.002;37.208;2022-11-12T17:58:39;1.10;;;0.25;;
75548;SDS011;64133;56.002;37.208;2022-11-12T18:03:45;1.90;;;0.70;;
75548;SDS011;64133;56.002;37.208;2022-11-12T18:08:52;1.37;;;0.40;;
75548;SDS011;64133;56.002;37.208;2022-11-12T18:13:56;1.42;;;0.50;;
75548;SDS011;64133;56.002;37.208;2022-11-12T18:19:01;1.67;;;0.40;;
75548;SDS011;64133;56.002;37.208;2022-11-12T18:24:10;2.65;;;0.60;;
75548;SDS011;64133;56.002;37.208;2022-11-12T18:29:15;1.37;;;0.30;;
75548;SDS011;64133;56.002;37.208;2022-11-12T18:34:20;1.57;;;0.53;;
75548;SDS011;64133;56.002;37.208;2022-11-12T18:39:25;1.75;;;0.40;;
75548;SDS011;64133;56.002;37.208;2022-11-12T18:44:30;2.08;;;0.60;;
75548;SDS011;64133;56.002;37.208;2022-11-12T18:49:35;2.40;;;0.40;;
75548;SDS011;64133;56.002;37.208;2022-11-12T18:54:40;1.85;;;0.50;;
75548;SDS011;64133;56.002;37.208;2022-11-12T18:59:45;3.47;;;0.50;;
75548;SDS011;64133;56.002;37.208;2022-11-12T19:04:50;1.65;;;0.30;;
75548;SDS011;64133;56.002;37.208;2022-11-12T19:09:55;0.60;;;0.20;;
75548;SDS011;64133;56.002;37.208;2022-11-12T19:15:00;3.00;;;0.93;;
75548;SDS011;64133;56.002;37.208;2022-11-12T19:20:07;3.65;;;0.47;;
75548;SDS011;64133;56.002;37.208;2022-11-12T19:25:12;2.20;;;0.55;;
75548;SDS011;64133;56.002;37.208;2022-11-12T19:30:18;2.30;;;0.62;;
75548;SDS011;64133;56.002;37.208;2022-11-12T19:35:23;2.98;;;0.65;;
75548;SDS011;64133;56.002;37.208;2022-11-12T19:40:28;2.80;;;0.50;;
75548;SDS011;64133;56.002;37.208;2022-11-12T19:45:33;4.03;;;0.60;;
75548;SDS011;64133;56.002;37.208;2022-11-12T19:50:38;1.60;;;0.50;;
75548;SDS011;64133;56.002;37.208;2022-11-12T19:55:47;2.08;;;0.45;;
75548;SDS011;64133;56.002;37.208;2022-11-12T20:00:52;1.60;;;0.30;;
75548;SDS011;64133;56.002;37.208;2022-11-12T20:05:59;1.52;;;0.25;;
75548;SDS011;64133;56.002;37.208;2022-11-12T20:11:04;3.55;;;0.40;;
75548;SDS011;64133;56.002;37.208;2022-11-12T20:16:10;2.33;;;0.20;;
75548;SDS011;64133;56.002;37.208;2022-11-12T20:21:15;1.40;;;0.40;;
75548;SDS011;64133;56.002;37.208;2022-11-12T20:26:20;2.22;;;0.62;;
75548;SDS011;64133;56.002;37.208;2022-11-12T20:31:25;2.12;;;0.47;;
75548;SDS011;64133;56.002;37.208;2022-11-12T20:36:30;1.25;;;0.45;;
75548;SDS011;64133;56.002;37.208;2022-11-12T20:41:35;2.58;;;0.30;;
75548;SDS011;64133;56.002;37.208;2022-11-12T20:46:40;2.05;;;0.40;;
75548;SDS011;64133;56.002;37.208;2022-11-12T20:51:45;1.52;;;0.40;;
75548;SDS011;64133;56.002;37.208;2022-11-12T20:56:50;1.92;;;0.45;;
75548;SDS011;64133;56.002;37.208;2022-11-12T21:01:55;2.42;;;0.62;;
75548;SDS011;64133;56.002;37.208;2022-11-12T21:07:00;3.52;;;0.93;;
75548;SDS011;64133;56.002;37.208;2022-11-12T21:12:06;1.47;;;0.20;;
75548;SDS011;64133;56.002;37.208;2022-11-12T21:17:11;1.25;;;0.82;;
75548;SDS011;64133;56.002;37.208;2022-11-12T21:22:19;2.77;;;0.30;;
75548;SDS011;64133;56.002;37.208;2022-11-12T21:27:24;2.10;;;0.40;;
75548;SDS011;64133;56.002;37.208;2022-11-12T21:32:29;1.22;;;0.50;;
75548;SDS011;64133;56.002;37.208;2022-11-12T21:37:34;0.57;;;0.20;;
75548;SDS011;64133;56.002;37.208;2022-11-12T21:42:41;2.55;;;0.30;;
75548;SDS011;64133;56.002;37.208;2022-11-12T21:47:46;0.88;;;0.20;;
75548;SDS011;64133;56.002;37.208;2022-11-12T21:52:51;0.78;;;0.20;;
75548;SDS011;64133;56.002;37.208;2022-11-12T21:57:57;0.95;;;0.20;;
75548;SDS011;64133;56.002;37.208;2022-11-12T22:03:02;0.70;;;0.28;;
75548;SDS011;64133;56.002;37.208;2022-11-12T22:08:07;3.20;;;0.37;;
75548;SDS011;64133;56.002;37.208;2022-11-12T22:13:12;1.70;;;0.33;;
75548;SDS011;64133;56.002;37.208;2022-11-12T22:18:17;1.05;;;0.40;;
75548;SDS011;64133;56.002;37.208;2022-11-12T22:23:22;1.52;;;0.72;;
75548;SDS011;64133;56.002;37.208;2022-11-12T22:28:27;2.00;;;0.42;;
75548;SDS011;64133;56.002;37.208;2022-11-12T22:33:32;2.12;;;0.17;;
75548;SDS011;64133;56.002;37.208;2022-11-12T22:38:38;1.10;;;0.20;;
75548;SDS011;64133;56.002;37.208;2022-11-12T22:43:42;1.02;;;0.10;;
75548;SDS011;64133;56.002;37.208;2022-11-12T22:48:46;1.50;;;0.13;;
75548;SDS011;64133;56.002;37.208;2022-11-12T22:53:52;1.55;;;0.37;;
75548;SDS011;64133;56.002;37.208;2022-11-12T22:58:57;1.12;;;0.35;;
75548;SDS011;64133;56.002;37.208;2022-11-12T23:04:02;1.00;;;0.28;;
75548;SDS011;64133;56.002;37.208;2022-11-12T23:09:16;0.90;;;0.50;;
75548;SDS011;64133;56.002;37.208;2022-11-12T23:14:21;0.53;;;0.10;;
75548;SDS011;64133;56.002;37.208;2022-11-12T23:19:26;0.75;;;0.20;;
75548;SDS011;64133;56.002;37.208;2022-11-12T23:24:30;1.20;;;0.10;;
75548;SDS011;64133;56.002;37.208;2022-11-12T23:29:35;1.00;;;0.40;;
75548;SDS011;64133;56.002;37.208;2022-11-12T23:34:40;0.45;;;0.20;;
75548;SDS011;64133;56.002;37.208;2022-11-12T23:39:45;0.68;;;0.10;;
75548;SDS011;64133;56.002;37.208;2022-11-12T23:44:50;0.40;;;0.10;;
75548;SDS011;64133;56.002;37.208;2022-11-12T23:49:55;1.45;;;0.45;;
75548;SDS011;64133;56.002;37.208;2022-11-12T23:55:00;1.92;;;0.20;;
